Time;durP1;ratioP1;P1;durP2;ratioP2;P2;SDS_P1;SDS_P2;PMS_P1;PMS_P2;Temp;Humidity;BMP_temperature;BMP_pressure;BME280_temperature;BME280_humidity;BME280_pressure;Samples;Min_cycle;Max_cycle;Signal;HPM_P1;HPM_P2
2022/03/18 00:02:13;;;;;;;;;;;8.00;99.90;;;;;;5051343;28;20016;-55
2022/03/18 00:04:40;;;;;;;;;;;7.90;99.90;;;;;;5050595;28;19929;-55
2022/03/18 00:07:09;;;;;;;;;;;7.80;99.90;;;;;;5051230;28;19928;-55
2022/03/18 00:09:36;;;;;;;;;;;7.90;99.90;;;;;;5052068;28;19929;-55
2022/03/18 00:12:02;;;;;;;;;;;7.80;99.90;;;;;;5051307;28;19978;-54
2022/03/18 00:14:29;;;;;;;;;;;7.70;99.90;;;;;;5051546;28;20023;-55
2022/03/18 00:16:56;;;;;;;;;;;7.60;99.90;;;;;;5061212;28;19925;-55
2022/03/18 00:19:24;;;;;;;;;;;7.60;99.90;;;;;;5054165;28;19986;-55
2022/03/18 00:21:54;;;;;;;;;;;7.80;99.90;;;;;;5050903;28;19953;-55
2022/03/18 00:24:25;;;;;;;;;;;7.70;99.90;;;;;;5051432;28;20097;-55
2022/03/18 00:26:52;;;;;;;;;;;7.80;99.90;;;;;;5051071;28;19941;-56
2022/03/18 00:29:19;;;;;;;;;;;7.70;99.90;;;;;;5050842;28;20371;-54
2022/03/18 00:31:45;;;;;;;;;;;7.70;99.90;;;;;;5049498;28;19998;-55
2022/03/18 00:34:12;;;;;;;;;;;7.70;99.90;;;;;;5047017;28;20027;-55
2022/03/18 00:36:39;;;;;;;;;;;7.60;99.90;;;;;;5050631;28;19986;-55
2022/03/18 00:39:06;;;;;;;;;;;7.70;99.90;;;;;;5050708;28;20062;-55
2022/03/18 00:41:34;;;;;;;;;;;7.70;99.90;;;;;;5050206;28;20023;-55
2022/03/18 00:44:01;;;;;;;;;;;7.60;99.90;;;;;;5050876;28;20074;-55
2022/03/18 00:46:28;;;;;;;;;;;7.60;99.90;;;;;;5051260;28;19962;-55
2022/03/18 00:54:23;;;;;;;;;;;7.60;99.90;;;;;;5050490;28;19944;-55
2022/03/18 00:56:51;;;;;;;;;;;7.60;99.90;;;;;;5036117;28;19925;-55
2022/03/18 00:59:18;;;;;;;;;;;7.70;99.90;;;;;;5030858;28;20005;-55
2022/03/18 01:01:45;;;;;;;;;;;7.70;99.90;;;;;;5044757;28;20066;-55
2022/03/18 01:04:12;;;;;;;;;;;7.70;99.90;;;;;;5046397;28;19925;-55
2022/03/18 01:06:39;;;;;;;;;;;7.70;99.90;;;;;;5050700;28;19925;-55
2022/03/18 01:09:06;;;;;;;;;;;7.80;99.90;;;;;;5050900;28;19987;-54
2022/03/18 01:11:33;;;;;;;;;;;7.80;99.90;;;;;;5050406;28;20375;-55
2022/03/18 01:14:01;;;;;;;;;;;7.70;99.90;;;;;;5042261;28;19928;-55
2022/03/18 01:16:27;;;;;;;;;;;7.70;99.90;;;;;;5032848;28;19982;-55
2022/03/18 01:18:54;;;;;;;;;;;7.70;99.90;;;;;;5049114;28;19931;-55
2022/03/18 01:21:21;;;;;;;;;;;7.90;99.90;;;;;;5049742;28;19928;-55
2022/03/18 01:23:48;;;;;;;;;;;7.90;99.90;;;;;;5044357;28;19941;-55
2022/03/18 01:26:14;;;;;;;;;;;7.80;99.90;;;;;;5044317;28;19925;-55
2022/03/18 01:28:41;;;;;;;;;;;7.80;99.90;;;;;;5030045;28;19932;-55
2022/03/18 01:31:09;;;;;;;;;;;7.70;99.90;;;;;;5047371;28;19974;-56
2022/03/18 01:33:37;;;;;;;;;;;7.80;99.90;;;;;;5035384;28;20414;-55
2022/03/18 01:36:07;;;;;;;;;;;7.80;99.90;;;;;;5050017;28;19960;-55
2022/03/18 01:38:33;;;;;;;;;;;7.70;99.90;;;;;;5049809;28;20019;-55
2022/03/18 01:41:00;;;;;;;;;;;7.80;99.90;;;;;;5049768;28;19929;-55
2022/03/18 01:43:27;;;;;;;;;;;7.60;99.90;;;;;;5048923;28;19998;-55
2022/03/18 01:45:54;;;;;;;;;;;7.50;99.90;;;;;;5049029;28;19964;-55
2022/03/18 01:48:22;;;;;;;;;;;7.70;99.90;;;;;;5048603;28;19929;-55
2022/03/18 01:50:49;;;;;;;;;;;7.80;99.90;;;;;;5049304;28;19928;-55
2022/03/18 01:53:17;;;;;;;;;;;7.70;99.90;;;;;;5048788;28;20376;-55
2022/03/18 01:55:44;;;;;;;;;;;7.70;99.90;;;;;;5042019;28;20019;-55
2022/03/18 01:58:11;;;;;;;;;;;7.80;99.90;;;;;;5029612;28;20016;-54
2022/03/18 02:00:37;;;;;;;;;;;7.60;99.90;;;;;;5029549;28;19925;-55
2022/03/18 02:03:04;;;;;;;;;;;7.70;99.90;;;;;;5029927;28;19925;-55
2022/03/18 02:05:32;;;;;;;;;;;7.50;99.90;;;;;;5048756;28;19940;-55
2022/03/18 02:08:01;;;;;;;;;;;7.80;99.90;;;;;;5047432;28;19929;-55
2022/03/18 02:10:27;;;;;;;;;;;7.80;99.90;;;;;;5049224;28;19928;-55
2022/03/18 02:12:54;;;;;;;;;;;7.90;99.90;;;;;;5047181;28;20457;-55
2022/03/18 02:15:22;;;;;;;;;;;7.70;99.90;;;;;;5048141;28;19941;-55
2022/03/18 02:17:49;;;;;;;;;;;7.60;99.90;;;;;;5048482;28;19933;-55
2022/03/18 02:20:16;;;;;;;;;;;7.60;99.90;;;;;;5049169;28;19987;-55
2022/03/18 02:22:44;;;;;;;;;;;7.50;99.90;;;;;;5047301;28;20314;-55
2022/03/18 02:25:12;;;;;;;;;;;7.70;99.90;;;;;;5048973;28;19937;-55
2022/03/18 02:27:39;;;;;;;;;;;7.70;99.90;;;;;;5046929;28;19969;-55
2022/03/18 02:30:06;;;;;;;;;;;7.60;99.90;;;;;;5048772;28;20017;-55
2022/03/18 02:32:34;;;;;;;;;;;7.50;99.90;;;;;;5049139;28;19925;-55
2022/03/18 02:35:01;;;;;;;;;;;7.50;99.90;;;;;;5048727;28;19924;-55
2022/03/18 02:37:28;;;;;;;;;;;7.60;99.90;;;;;;5049036;28;19964;-55
2022/03/18 02:39:58;;;;;;;;;;;7.70;99.90;;;;;;5048236;28;20383;-55
2022/03/18 02:42:25;;;;;;;;;;;7.80;99.90;;;;;;5046617;28;20320;-55
2022/03/18 02:44:53;;;;;;;;;;;7.70;99.90;;;;;;5047210;28;20375;-55
2022/03/18 02:47:20;;;;;;;;;;;7.60;99.90;;;;;;5048655;28;20411;-55
2022/03/18 02:49:47;;;;;;;;;;;7.60;99.90;;;;;;5048359;28;19925;-56
2022/03/18 02:52:14;;;;;;;;;;;7.50;99.90;;;;;;5048755;28;20402;-55
2022/03/18 02:54:41;;;;;;;;;;;7.60;99.90;;;;;;5047039;28;20355;-55
2022/03/18 02:57:10;;;;;;;;;;;7.50;99.90;;;;;;5034558;28;19975;-54
2022/03/18 02:59:36;;;;;;;;;;;7.60;99.90;;;;;;5029317;28;20351;-55
2022/03/18 03:02:03;;;;;;;;;;;7.50;99.90;;;;;;5028857;28;20065;-55
2022/03/18 03:04:30;;;;;;;;;;;7.50;99.90;;;;;;5040315;28;20333;-55
2022/03/18 03:09:41;;;;;;;;;;;7.50;99.90;;;;;;5049130;28;19927;-55
2022/03/18 03:12:07;;;;;;;;;;;7.50;99.90;;;;;;5048690;28;19925;-55
2022/03/18 03:14:36;;;;;;;;;;;7.50;99.90;;;;;;5048386;28;20379;-56
2022/03/18 03:17:03;;;;;;;;;;;7.40;99.90;;;;;;5048778;28;20000;-55
2022/03/18 03:19:30;;;;;;;;;;;7.50;99.90;;;;;;5048673;28;19978;-55
2022/03/18 03:21:56;;;;;;;;;;;7.40;99.90;;;;;;5029688;28;19929;-55
2022/03/18 03:24:23;;;;;;;;;;;7.50;99.90;;;;;;5037603;28;19924;-56
2022/03/18 03:26:50;;;;;;;;;;;7.50;99.90;;;;;;5048731;28;19990;-55
2022/03/18 03:29:17;;;;;;;;;;;7.60;99.90;;;;;;5048744;28;19929;-55
2022/03/18 03:31:45;;;;;;;;;;;7.50;99.90;;;;;;5048344;28;19977;-55
2022/03/18 03:34:14;;;;;;;;;;;7.40;99.90;;;;;;5048341;28;19956;-55
2022/03/18 03:36:41;;;;;;;;;;;7.50;99.90;;;;;;5047993;28;19925;-55
2022/03/18 03:39:08;;;;;;;;;;;7.40;99.90;;;;;;5048796;28;20302;-55
2022/03/18 03:41:35;;;;;;;;;;;7.40;99.90;;;;;;5051879;28;20345;-55
2022/03/18 03:44:01;;;;;;;;;;;7.40;99.90;;;;;;5051258;28;20358;-55
2022/03/18 03:46:28;;;;;;;;;;;7.40;99.90;;;;;;5039676;28;19929;-55
2022/03/18 03:48:56;;;;;;;;;;;7.40;99.90;;;;;;5034207;28;19979;-54
2022/03/18 03:51:23;;;;;;;;;;;7.50;99.90;;;;;;5051996;28;20027;-54
2022/03/18 03:53:50;;;;;;;;;;;7.50;99.90;;;;;;5050047;28;19924;-55
2022/03/18 03:56:17;;;;;;;;;;;7.50;99.90;;;;;;5051000;28;19978;-55
2022/03/18 03:58:43;;;;;;;;;;;7.40;99.90;;;;;;5051875;28;19932;-55
2022/03/18 04:01:10;;;;;;;;;;;7.50;99.90;;;;;;5050500;28;20024;-55
2022/03/18 04:03:38;;;;;;;;;;;7.50;99.90;;;;;;5047826;28;19933;-55
2022/03/18 04:06:07;;;;;;;;;;;7.60;99.90;;;;;;5051181;28;19936;-55
2022/03/18 04:08:34;;;;;;;;;;;7.50;99.90;;;;;;5047726;28;19932;-55
2022/03/18 04:11:01;;;;;;;;;;;7.60;99.90;;;;;;5051282;28;19925;-55
2022/03/18 04:13:28;;;;;;;;;;;7.40;99.90;;;;;;5050787;28;19928;-55
2022/03/18 04:15:55;;;;;;;;;;;7.40;99.90;;;;;;5051164;28;19934;-55
2022/03/18 04:18:22;;;;;;;;;;;7.40;99.90;;;;;;5048754;28;19928;-55
2022/03/18 04:20:48;;;;;;;;;;;7.50;99.90;;;;;;5051472;28;20066;-56
2022/03/18 04:23:17;;;;;;;;;;;7.50;99.90;;;;;;5050635;28;19929;-55
2022/03/18 04:25:43;;;;;;;;;;;7.50;99.90;;;;;;5050412;28;20450;-54
2022/03/18 04:28:10;;;;;;;;;;;7.50;99.90;;;;;;5048546;28;20188;-55
2022/03/18 04:30:37;;;;;;;;;;;7.50;99.90;;;;;;5049253;28;19925;-56
2022/03/18 04:33:04;;;;;;;;;;;7.50;99.90;;;;;;5044584;28;19929;-55
2022/03/18 04:35:31;;;;;;;;;;;7.60;99.90;;;;;;5030936;28;19952;-55
2022/03/18 04:37:58;;;;;;;;;;;7.60;99.90;;;;;;5038540;28;20271;-54
2022/03/18 04:40:27;;;;;;;;;;;7.70;99.90;;;;;;5049259;28;20388;-55
2022/03/18 04:42:53;;;;;;;;;;;7.50;99.90;;;;;;5040705;28;19928;-55
2022/03/18 04:45:20;;;;;;;;;;;7.60;99.90;;;;;;5050382;28;19924;-55
2022/03/18 04:47:47;;;;;;;;;;;7.70;99.90;;;;;;5046143;28;19948;-55
2022/03/18 04:50:14;;;;;;;;;;;7.70;99.90;;;;;;5049255;28;20265;-55
2022/03/18 04:52:41;;;;;;;;;;;7.60;99.90;;;;;;5049974;28;19925;-55
2022/03/18 04:55:08;;;;;;;;;;;7.50;99.90;;;;;;5048367;28;20311;-55
2022/03/18 04:57:36;;;;;;;;;;;7.50;99.90;;;;;;5049900;28;20418;-55
2022/03/18 05:00:05;;;;;;;;;;;7.60;99.90;;;;;;5050263;28;19979;-55
2022/03/18 05:02:32;;;;;;;;;;;7.50;99.90;;;;;;5050079;28;19925;-55
2022/03/18 05:04:59;;;;;;;;;;;7.60;99.90;;;;;;5049658;28;20406;-53
2022/03/18 05:07:26;;;;;;;;;;;7.50;99.90;;;;;;5049855;28;19972;-55
2022/03/18 05:09:52;;;;;;;;;;;7.50;99.90;;;;;;5045596;28;20381;-54
2022/03/18 05:12:19;;;;;;;;;;;7.50;99.90;;;;;;5049615;28;19933;-55
2022/03/18 05:23:57;;;;;;;;;;;7.50;99.90;;;;;;5048586;28;19959;-55
2022/03/18 05:26:23;;;;;;;;;;;7.40;99.90;;;;;;5049527;28;19933;-55
2022/03/18 05:28:50;;;;;;;;;;;7.20;99.90;;;;;;5111180;22;19931;-51
2022/03/18 05:31:17;;;;;;;;;;;7.30;99.90;;;;;;5091195;28;20303;-50
2022/03/18 05:33:44;;;;;;;;;;;7.50;99.90;;;;;;5092014;28;19978;-51
2022/03/18 05:36:13;;;;;;;;;;;7.40;99.90;;;;;;5092420;28;19924;-50
2022/03/18 05:38:39;;;;;;;;;;;7.50;99.90;;;;;;5075461;28;20347;-51
2022/03/18 05:41:11;;;;;;;;;;;7.50;99.90;;;;;;5071685;28;20452;-50
2022/03/18 05:43:39;;;;;;;;;;;7.40;99.90;;;;;;5071950;28;19959;-51
2022/03/18 05:46:05;;;;;;;;;;;7.40;99.90;;;;;;5071639;28;19967;-51
2022/03/18 05:48:32;;;;;;;;;;;7.40;99.90;;;;;;5071680;28;19979;-51
2022/03/18 05:51:00;;;;;;;;;;;7.40;99.90;;;;;;5088215;28;19924;-51
2022/03/18 05:53:27;;;;;;;;;;;7.30;99.90;;;;;;5090024;28;19930;-51
2022/03/18 05:58:39;;;;;;;;;;;7.40;99.90;;;;;;5090004;28;20020;-51
2022/03/18 06:01:06;;;;;;;;;;;7.50;99.90;;;;;;5071592;28;19932;-51
2022/03/18 06:03:33;;;;;;;;;;;7.60;99.90;;;;;;5071662;28;19985;-49
2022/03/18 06:06:00;;;;;;;;;;;7.80;99.90;;;;;;5071439;28;20008;-50
2022/03/18 06:13:57;;;;;;;;;;;7.80;99.90;;;;;;5071307;28;19932;-49
2022/03/18 06:16:24;;;;;;;;;;;7.80;99.90;;;;;;5072298;28;20395;-51
2022/03/18 06:18:51;;;;;;;;;;;7.80;99.90;;;;;;5075048;28;20034;-50
2022/03/18 06:21:17;;;;;;;;;;;7.80;99.90;;;;;;5071157;28;19924;-50
2022/03/18 06:23:44;;;;;;;;;;;7.90;99.90;;;;;;5071255;28;19932;-50
2022/03/18 06:26:14;;;;;;;;;;;8.00;99.90;;;;;;5073563;28;20390;-51
2022/03/18 06:28:41;;;;;;;;;;;7.80;99.90;;;;;;5090374;28;19928;-50
2022/03/18 06:31:09;;;;;;;;;;;7.90;99.90;;;;;;5070973;28;19928;-50
2022/03/18 06:33:41;;;;;;;;;;;7.90;99.90;;;;;;5071904;28;19925;-50
2022/03/18 06:36:08;;;;;;;;;;;7.90;99.90;;;;;;5071276;28;19963;-51
2022/03/18 06:38:35;;;;;;;;;;;7.90;99.90;;;;;;5071032;28;19928;-50
2022/03/18 06:41:02;;;;;;;;;;;7.80;99.90;;;;;;5087233;28;19924;-50
2022/03/18 06:43:29;;;;;;;;;;;7.80;99.90;;;;;;5071181;28;19933;-50
2022/03/18 06:45:56;;;;;;;;;;;7.90;99.90;;;;;;5070947;28;19924;-50
2022/03/18 06:48:24;;;;;;;;;;;8.00;99.90;;;;;;5071323;28;19925;-51
2022/03/18 06:50:51;;;;;;;;;;;7.70;99.90;;;;;;5080165;28;19925;-50
2022/03/18 06:53:18;;;;;;;;;;;7.90;99.90;;;;;;5068998;28;19989;-51
2022/03/18 06:55:45;;;;;;;;;;;8.00;99.90;;;;;;5070552;28;19982;-51
2022/03/18 06:58:12;;;;;;;;;;;8.00;99.90;;;;;;5070550;28;20008;-51
2022/03/18 07:00:39;;;;;;;;;;;8.10;99.90;;;;;;5071365;28;19924;-51
2022/03/18 07:03:05;;;;;;;;;;;8.10;99.90;;;;;;5072439;28;20411;-51
2022/03/18 07:05:34;;;;;;;;;;;8.00;99.90;;;;;;5076035;28;20387;-51
2022/03/18 07:08:01;;;;;;;;;;;7.80;99.90;;;;;;5070764;28;19925;-51
2022/03/18 07:10:27;;;;;;;;;;;7.80;99.90;;;;;;5070648;28;20605;-51
2022/03/18 07:12:54;;;;;;;;;;;7.80;99.90;;;;;;5072087;28;19928;-51
2022/03/18 07:15:21;;;;;;;;;;;7.90;99.90;;;;;;5083206;28;19932;-51
2022/03/18 07:17:56;;;;;;;;;;;8.00;99.90;;;;;;5094842;28;19924;-51
2022/03/18 07:20:23;;;;;;;;;;;8.10;99.90;;;;;;5094912;28;19927;-51
2022/03/18 07:23:01;;;;;;;;;;;8.10;99.90;;;;;;5092749;28;19924;-51
2022/03/18 07:25:28;;;;;;;;;;;8.20;99.90;;;;;;5084370;28;19928;-51
2022/03/18 07:27:54;;;;;;;;;;;8.20;99.90;;;;;;5079736;28;20018;-50
2022/03/18 07:30:21;;;;;;;;;;;8.30;99.90;;;;;;5094410;28;19924;-51
2022/03/18 07:32:48;;;;;;;;;;;8.40;99.90;;;;;;5089291;28;19932;-50
2022/03/18 07:35:15;;;;;;;;;;;8.30;99.90;;;;;;5070067;28;19970;-50
2022/03/18 07:37:42;;;;;;;;;;;8.30;99.90;;;;;;5073608;28;20022;-50
2022/03/18 07:40:11;;;;;;;;;;;8.40;99.90;;;;;;5074104;28;19924;-51
2022/03/18 07:42:42;;;;;;;;;;;8.40;99.90;;;;;;5070636;28;20277;-51
2022/03/18 07:45:09;;;;;;;;;;;8.40;99.90;;;;;;5073422;28;20320;-50
2022/03/18 07:47:36;;;;;;;;;;;8.50;99.90;;;;;;5073392;28;19924;-51
2022/03/18 07:50:03;;;;;;;;;;;8.20;99.90;;;;;;5074156;28;20023;-51
2022/03/18 07:52:30;;;;;;;;;;;8.30;99.90;;;;;;5074096;28;20001;-50
2022/03/18 07:54:57;;;;;;;;;;;8.40;99.90;;;;;;5082987;28;19936;-51
2022/03/18 07:57:25;;;;;;;;;;;8.40;99.90;;;;;;5078346;28;19933;-50
2022/03/18 07:59:52;;;;;;;;;;;8.40;99.90;;;;;;5073682;28;20387;-51
2022/03/18 08:02:18;;;;;;;;;;;8.40;99.90;;;;;;5073757;28;19928;-51
2022/03/18 08:04:47;;;;;;;;;;;8.40;99.90;;;;;;5073902;28;19928;-52
2022/03/18 08:07:14;;;;;;;;;;;8.60;99.90;;;;;;5072033;28;20179;-51
2022/03/18 08:09:41;;;;;;;;;;;8.80;99.90;;;;;;5073786;28;19924;-51
2022/03/18 08:12:08;;;;;;;;;;;9.00;99.90;;;;;;5076452;28;19924;-51
2022/03/18 08:14:36;;;;;;;;;;;9.10;99.90;;;;;;5092602;28;20379;-52
2022/03/18 08:17:03;;;;;;;;;;;8.90;99.90;;;;;;5069645;28;19989;-52
2022/03/18 08:19:30;;;;;;;;;;;9.00;99.90;;;;;;5087525;28;19931;-52
2022/03/18 08:21:56;;;;;;;;;;;9.30;99.90;;;;;;5073818;28;19948;-51
2022/03/18 08:24:23;;;;;;;;;;;9.20;99.90;;;;;;5091469;28;19924;-51
2022/03/18 08:26:50;;;;;;;;;;;8.80;99.90;;;;;;5084938;28;19925;-52
2022/03/18 08:29:17;;;;;;;;;;;8.90;99.90;;;;;;5072483;28;20307;-52
2022/03/18 08:31:45;;;;;;;;;;;9.10;99.90;;;;;;5072611;28;19924;-51
2022/03/18 08:34:12;;;;;;;;;;;9.20;99.90;;;;;;5072799;28;19933;-52
2022/03/18 08:36:38;;;;;;;;;;;9.30;99.90;;;;;;5073193;28;19983;-52
2022/03/18 08:39:05;;;;;;;;;;;9.40;99.90;;;;;;5053218;28;19936;-51
2022/03/18 08:41:32;;;;;;;;;;;9.90;99.90;;;;;;5052944;28;19925;-52
2022/03/18 08:43:59;;;;;;;;;;;10.20;99.90;;;;;;5052964;28;19925;-52
2022/03/18 08:46:28;;;;;;;;;;;10.40;99.90;;;;;;5052575;28;19983;-52
2022/03/18 08:48:57;;;;;;;;;;;10.90;99.90;;;;;;5053034;28;19928;-52
2022/03/18 08:51:24;;;;;;;;;;;11.20;99.90;;;;;;5063392;28;19928;-52
2022/03/18 08:53:51;;;;;;;;;;;11.00;99.90;;;;;;5072667;28;19931;-52
2022/03/18 08:56:17;;;;;;;;;;;11.00;99.90;;;;;;5071456;28;19928;-52
2022/03/18 08:58:45;;;;;;;;;;;11.30;99.90;;;;;;5071806;28;20317;-53
2022/03/18 09:01:12;;;;;;;;;;;11.10;99.90;;;;;;5071846;28;19928;-52
2022/03/18 09:03:38;;;;;;;;;;;10.70;99.90;;;;;;5070913;28;19946;-51
2022/03/18 09:06:07;;;;;;;;;;;11.00;99.90;;;;;;5070970;28;19924;-52
2022/03/18 09:08:34;;;;;;;;;;;11.30;99.90;;;;;;5062975;28;19932;-52
2022/03/18 09:11:00;;;;;;;;;;;11.20;99.90;;;;;;5072109;28;19950;-52
2022/03/18 09:13:27;;;;;;;;;;;11.20;99.90;;;;;;5072389;28;19925;-52
2022/03/18 09:15:54;;;;;;;;;;;11.10;99.90;;;;;;5072550;28;19924;-52
2022/03/18 09:18:21;;;;;;;;;;;10.60;99.90;;;;;;5072376;28;20341;-52
2022/03/18 09:20:48;;;;;;;;;;;11.00;99.90;;;;;;5072046;28;20291;-52
2022/03/18 09:23:16;;;;;;;;;;;11.00;99.90;;;;;;5071813;28;19925;-52
2022/03/18 09:25:43;;;;;;;;;;;11.20;99.90;;;;;;5084018;28;20383;-52
2022/03/18 09:28:10;;;;;;;;;;;11.10;99.90;;;;;;5086987;28;19924;-51
2022/03/18 09:30:36;;;;;;;;;;;11.10;99.90;;;;;;5071271;28;19928;-51
2022/03/18 09:33:03;;;;;;;;;;;11.00;99.90;;;;;;5069286;28;20367;-51
2022/03/18 09:35:30;;;;;;;;;;;10.70;99.90;;;;;;5070775;28;19924;-52
2022/03/18 09:37:57;;;;;;;;;;;10.70;99.90;;;;;;5069889;28;20040;-51
2022/03/18 09:40:25;;;;;;;;;;;10.80;99.90;;;;;;5072584;28;19924;-51
2022/03/18 09:42:55;;;;;;;;;;;10.90;99.90;;;;;;5070832;28;19924;-51
2022/03/18 09:45:23;;;;;;;;;;;11.10;99.90;;;;;;5068955;28;19954;-50
2022/03/18 09:47:50;;;;;;;;;;;11.00;99.90;;;;;;5070073;28;19924;-50
2022/03/18 09:50:17;;;;;;;;;;;11.00;99.90;;;;;;5070548;28;19925;-51
2022/03/18 09:52:44;;;;;;;;;;;10.90;99.90;;;;;;5068799;28;19924;-52
2022/03/18 09:55:11;;;;;;;;;;;11.00;99.90;;;;;;5070569;28;20015;-51
2022/03/18 09:57:39;;;;;;;;;;;11.00;99.90;;;;;;5065524;28;19978;-51
2022/03/18 10:00:06;;;;;;;;;;;11.00;99.90;;;;;;5066625;28;19925;-51
2022/03/18 10:02:34;;;;;;;;;;;11.20;99.90;;;;;;5068098;28;19990;-52
2022/03/18 10:05:01;;;;;;;;;;;11.50;99.90;;;;;;5068770;28;19970;-51
2022/03/18 10:07:29;;;;;;;;;;;11.30;99.90;;;;;;5070720;28;19975;-51
2022/03/18 10:10:08;;;;;;;;;;;11.20;99.90;;;;;;5068611;28;20395;-51
2022/03/18 10:12:36;;;;;;;;;;;11.20;99.90;;;;;;5069993;28;19924;-52
2022/03/18 10:15:14;;;;;;;;;;;11.30;99.90;;;;;;5069378;28;19947;-51
2022/03/18 10:17:47;;;;;;;;;;;11.70;99.90;;;;;;5070719;28;20457;-51
2022/03/18 10:20:24;;;;;;;;;;;11.40;99.90;;;;;;5070729;28;19935;-51
2022/03/18 10:22:51;;;;;;;;;;;11.50;99.90;;;;;;5066115;28;19970;-51
2022/03/18 10:25:34;;;;;;;;;;;11.60;99.90;;;;;;5070012;28;19929;-51
2022/03/18 10:28:01;;;;;;;;;;;11.50;99.90;;;;;;5070339;28;19925;-51
2022/03/18 10:30:29;;;;;;;;;;;11.50;99.90;;;;;;5068413;28;19924;-51
2022/03/18 10:32:56;;;;;;;;;;;11.50;99.90;;;;;;5069528;28;19929;-51
2022/03/18 10:38:14;;;;;;;;;;;11.50;99.90;;;;;;5062235;28;19928;-52
2022/03/18 10:40:40;;;;;;;;;;;11.70;99.90;;;;;;5069851;28;20399;-52
2022/03/18 10:43:08;;;;;;;;;;;11.70;99.90;;;;;;5069938;28;20398;-52
2022/03/18 10:45:36;;;;;;;;;;;11.60;99.90;;;;;;5072644;28;19924;-51
2022/03/18 10:48:13;;;;;;;;;;;11.60;99.90;;;;;;5071867;28;19924;-51
2022/03/18 10:50:40;;;;;;;;;;;12.00;99.90;;;;;;5069196;28;19928;-51
2022/03/18 10:53:08;;;;;;;;;;;12.50;99.90;;;;;;5074613;28;19925;-51
2022/03/18 10:55:36;;;;;;;;;;;13.00;99.90;;;;;;5074258;28;20341;-52
2022/03/18 10:58:07;;;;;;;;;;;13.10;99.90;;;;;;5074615;28;19931;-52
2022/03/18 11:00:35;;;;;;;;;;;13.20;99.90;;;;;;5073666;28;19963;-51
2022/03/18 11:03:04;;;;;;;;;;;13.30;99.90;;;;;;5072914;28;19970;-51
2022/03/18 11:05:31;;;;;;;;;;;13.30;99.90;;;;;;5073915;28;19929;-52
2022/03/18 11:08:00;;;;;;;;;;;13.40;99.90;;;;;;5067900;28;19932;-51
2022/03/18 11:13:13;;;;;;;;;;;14.20;99.90;;;;;;5064625;28;19943;-51
2022/03/18 11:15:42;;;;;;;;;;;14.60;99.90;;;;;;5063794;28;19959;-51
2022/03/18 11:18:11;;;;;;;;;;;14.50;99.90;;;;;;5074907;28;19978;-52
2022/03/18 11:20:42;;;;;;;;;;;14.60;99.90;;;;;;5075191;28;19932;-49
2022/03/18 11:23:13;;;;;;;;;;;15.00;99.90;;;;;;5081586;28;19930;-51
2022/03/18 11:25:41;;;;;;;;;;;15.40;99.90;;;;;;5068124;28;19932;-51
2022/03/18 11:28:09;;;;;;;;;;;15.10;99.90;;;;;;5097019;22;19978;-57
2022/03/18 11:30:35;;;;;;;;;;;14.30;99.90;;;;;;5073024;28;20077;-57
2022/03/18 11:33:22;;;;;;;;;;;14.00;99.90;;;;;;5076775;28;20365;-57
2022/03/18 11:36:08;;;;;;;;;;;14.00;99.90;;;;;;5066576;28;20382;-57
2022/03/18 11:38:52;;;;;;;;;;;13.90;99.90;;;;;;5068409;28;19978;-57
2022/03/18 11:41:19;;;;;;;;;;;14.00;99.90;;;;;;5076375;28;20342;-57
2022/03/18 11:43:50;;;;;;;;;;;13.90;99.90;;;;;;5078100;28;19934;-58
2022/03/18 11:46:25;;;;;;;;;;;13.40;99.90;;;;;;5070231;28;19924;-58
2022/03/18 11:48:55;;;;;;;;;;;13.10;99.90;;;;;;5069270;28;19994;-58
2022/03/18 11:51:26;;;;;;;;;;;13.10;99.90;;;;;;5069051;28;19925;-57
2022/03/18 11:53:54;;;;;;;;;;;13.60;99.90;;;;;;5073913;28;20361;-58
2022/03/18 11:56:22;;;;;;;;;;;13.40;99.90;;;;;;5085860;28;20336;-58
2022/03/18 11:58:49;;;;;;;;;;;13.60;99.90;;;;;;5072450;28;19932;-58
2022/03/18 12:01:34;;;;;;;;;;;14.00;99.90;;;;;;5073122;28;19931;-58
2022/03/18 12:04:05;;;;;;;;;;;14.20;99.90;;;;;;5073265;28;19925;-55
2022/03/18 12:06:32;;;;;;;;;;;14.40;99.90;;;;;;5088179;28;19924;-56
2022/03/18 12:09:00;;;;;;;;;;;14.60;99.90;;;;;;5074925;28;19925;-55
2022/03/18 12:11:31;;;;;;;;;;;14.80;99.90;;;;;;5074104;28;20342;-56
2022/03/18 12:13:58;;;;;;;;;;;15.10;99.90;;;;;;5073714;28;19925;-56
2022/03/18 12:16:25;;;;;;;;;;;15.30;99.90;;;;;;5073134;28;19970;-56
2022/03/18 12:18:56;;;;;;;;;;;15.10;99.90;;;;;;5074325;28;19931;-56
2022/03/18 12:21:34;;;;;;;;;;;15.10;99.90;;;;;;5091453;28;19925;-57
2022/03/18 12:24:05;;;;;;;;;;;15.00;99.90;;;;;;5091542;28;19928;-56
2022/03/18 12:26:31;;;;;;;;;;;14.90;99.90;;;;;;5085691;28;19928;-56
2022/03/18 12:28:58;;;;;;;;;;;15.00;99.90;;;;;;5083046;28;19924;-56
2022/03/18 12:31:25;;;;;;;;;;;14.60;99.90;;;;;;5091397;28;20503;-56
2022/03/18 12:33:56;;;;;;;;;;;14.80;99.90;;;;;;5084369;28;19924;-56
2022/03/18 12:36:24;;;;;;;;;;;14.30;99.90;;;;;;5072944;28;19929;-56
2022/03/18 12:39:04;;;;;;;;;;;14.60;99.90;;;;;;5073099;28;19929;-56
2022/03/18 12:41:31;;;;;;;;;;;15.20;99.90;;;;;;5072742;28;19925;-57
2022/03/18 12:43:58;;;;;;;;;;;15.30;99.90;;;;;;5072612;28;19985;-57
2022/03/18 12:46:24;;;;;;;;;;;14.90;99.90;;;;;;5058499;28;19924;-56
2022/03/18 12:48:51;;;;;;;;;;;15.00;99.90;;;;;;5073102;28;19974;-57
2022/03/18 12:51:18;;;;;;;;;;;15.30;99.90;;;;;;5075181;28;19928;-57
2022/03/18 12:53:46;;;;;;;;;;;15.50;99.90;;;;;;5071485;28;19960;-57
2022/03/18 12:56:18;;;;;;;;;;;15.50;99.90;;;;;;5077096;28;19927;-57
2022/03/18 12:58:46;;;;;;;;;;;15.50;99.90;;;;;;5073900;28;19970;-57
2022/03/18 13:01:13;;;;;;;;;;;15.20;99.90;;;;;;5070967;28;19924;-57
2022/03/18 13:03:46;;;;;;;;;;;15.10;99.90;;;;;;5071292;28;20337;-57
2022/03/18 13:06:18;;;;;;;;;;;15.30;99.90;;;;;;5071443;28;19932;-57
2022/03/18 13:08:47;;;;;;;;;;;15.50;99.90;;;;;;5071168;28;20305;-57
2022/03/18 13:11:17;;;;;;;;;;;14.90;99.90;;;;;;5070256;28;19928;-57
2022/03/18 13:13:46;;;;;;;;;;;15.20;99.90;;;;;;5070766;28;19959;-57
2022/03/18 13:16:13;;;;;;;;;;;15.10;99.90;;;;;;5070871;28;19954;-56
2022/03/18 13:18:48;;;;;;;;;;;15.20;99.90;;;;;;5071962;28;19951;-58
2022/03/18 13:21:15;;;;;;;;;;;15.50;99.90;;;;;;5070985;28;19986;-57
2022/03/18 13:23:42;;;;;;;;;;;15.20;99.90;;;;;;5084225;28;19924;-58
2022/03/18 13:26:11;;;;;;;;;;;15.20;99.90;;;;;;5071964;28;19928;-57
2022/03/18 13:28:40;;;;;;;;;;;15.10;99.90;;;;;;5071646;28;19925;-57
2022/03/18 13:33:52;;;;;;;;;;;15.30;99.90;;;;;;5070473;28;20029;-57
2022/03/18 13:36:23;;;;;;;;;;;15.20;99.90;;;;;;5070490;28;20454;-57
2022/03/18 13:38:50;;;;;;;;;;;15.40;99.90;;;;;;5071478;28;20003;-58
2022/03/18 13:41:17;;;;;;;;;;;15.30;99.90;;;;;;5071517;28;19955;-57
2022/03/18 13:43:46;;;;;;;;;;;15.40;99.90;;;;;;5091133;28;20483;-57
2022/03/18 13:46:15;;;;;;;;;;;15.40;99.90;;;;;;5089910;28;19971;-58
2022/03/18 13:48:42;;;;;;;;;;;15.40;99.90;;;;;;5091237;28;19928;-58
2022/03/18 13:51:10;;;;;;;;;;;15.60;99.90;;;;;;5087334;28;20379;-58
2022/03/18 13:53:37;;;;;;;;;;;15.70;99.90;;;;;;5089730;28;19977;-57
2022/03/18 13:56:15;;;;;;;;;;;15.90;99.90;;;;;;5090080;28;19928;-57
2022/03/18 13:58:42;;;;;;;;;;;16.20;99.90;;;;;;5090725;28;20475;-58
2022/03/18 14:01:11;;;;;;;;;;;16.40;99.90;;;;;;5079115;28;19925;-56
2022/03/18 14:03:41;;;;;;;;;;;16.70;99.90;;;;;;5071814;28;19924;-56
2022/03/18 14:06:09;;;;;;;;;;;16.40;99.90;;;;;;5090143;28;20393;-56
2022/03/18 14:08:39;;;;;;;;;;;16.50;99.90;;;;;;5086338;28;20051;-56
2022/03/18 14:12:08;;;;;;;;;;;16.90;99.90;;;;;;5070638;28;19964;-56
2022/03/18 14:13:53;;;;;;;;;;;16.50;99.90;;;;;;5073164;28;19956;-56
2022/03/18 14:16:21;;;;;;;;;;;15.80;99.90;;;;;;5070778;28;19925;-57
2022/03/18 14:18:48;;;;;;;;;;;16.00;99.90;;;;;;5072038;28;20412;-57
2022/03/18 14:21:15;;;;;;;;;;;15.80;99.90;;;;;;5070711;28;19970;-57
2022/03/18 14:23:43;;;;;;;;;;;15.90;99.90;;;;;;5071575;28;19932;-57
2022/03/18 14:26:13;;;;;;;;;;;15.70;99.90;;;;;;5078284;28;19993;-57
2022/03/18 14:28:41;;;;;;;;;;;15.70;99.90;;;;;;5088997;28;20336;-57
2022/03/18 14:31:08;;;;;;;;;;;15.60;99.90;;;;;;5079648;28;20418;-57
2022/03/18 14:33:38;;;;;;;;;;;15.60;99.90;;;;;;5070906;28;19929;-57
2022/03/18 14:36:05;;;;;;;;;;;15.60;99.90;;;;;;5072044;28;19924;-57
2022/03/18 14:38:32;;;;;;;;;;;15.50;99.90;;;;;;5070616;28;19930;-57
2022/03/18 14:41:01;;;;;;;;;;;15.40;99.90;;;;;;5070468;28;19924;-58
2022/03/18 14:43:29;;;;;;;;;;;15.20;99.90;;;;;;5080764;28;19931;-57
2022/03/18 14:45:56;;;;;;;;;;;15.40;99.90;;;;;;5088310;28;19976;-57
2022/03/18 14:48:22;;;;;;;;;;;15.10;99.90;;;;;;5072022;28;19924;-57
2022/03/18 14:50:50;;;;;;;;;;;15.40;99.90;;;;;;5077140;28;19924;-57
2022/03/18 14:53:18;;;;;;;;;;;15.50;99.90;;;;;;5071637;28;19932;-57
2022/03/18 14:58:29;;;;;;;;;;;15.20;99.90;;;;;;5071456;28;19928;-57
2022/03/18 15:00:58;;;;;;;;;;;15.20;99.90;;;;;;5086657;28;19932;-57
2022/03/18 15:03:25;;;;;;;;;;;15.40;99.90;;;;;;5088664;28;20410;-57
2022/03/18 15:05:53;;;;;;;;;;;15.60;99.90;;;;;;5079197;28;19924;-57